< < Back
Terminal Aerodrome Forecast


Current Version              Previous Versions:   1  2  3  4  5  6  7  8  9  

Terminal Aerodrome Forecast

218
FTUS42 KJAX 302340
TAFGNV
TAF
KGNV 302340Z 3100/3124 00000KT P6SM BKN250
     FM311300 01006KT P6SM SCT150 BKN250
     FM311700 05009KT P6SM SCT150 BKN250
     FM312200 08006KT P6SM BKN150 BKN250=



Latest METAR

921
SAUS70 KWBC 310000 RRH
MTRGNV
METAR KGNV 302353Z 34004KT 10SM FU CLR 13/01 A3021 RMK AO2 SLP230
T01280011 10200 20122 53018


USA.gov is the U.S. government's official web portal to all federal, state and local government web resources and services.